createdAt,value
2022-08-14T00:01:24.072Z,100806.47
2022-08-14T00:03:50.902Z,100805.13
2022-08-14T00:06:28.683Z,100805.63
2022-08-14T00:08:59.194Z,100801.91
2022-08-14T00:11:31.233Z,100799.50
2022-08-14T00:14:01.434Z,100795.78
2022-08-14T00:16:41.198Z,100790.53
2022-08-14T00:19:21.346Z,100795.38
2022-08-14T00:21:52.017Z,100792.91
2022-08-14T00:24:28.211Z,100786.19
2022-08-14T00:26:55.798Z,100782.00
2022-08-14T00:29:25.356Z,100776.25
2022-08-14T00:31:55.283Z,100779.78
2022-08-14T00:34:36.360Z,100780.91
2022-08-14T00:37:05.679Z,100776.72
2022-08-14T00:39:32.545Z,100778.19
2022-08-14T00:41:59.240Z,100784.81
2022-08-14T00:44:32.443Z,100789.25
2022-08-14T00:47:02.570Z,100778.94
2022-08-14T00:49:37.737Z,100781.16
2022-08-14T00:52:09.685Z,100777.44
2022-08-14T00:54:42.447Z,100771.53
2022-08-14T00:57:09.375Z,100770.13
2022-08-14T00:59:36.588Z,100764.97
2022-08-14T01:02:05.800Z,100767.97
2022-08-14T01:04:38.360Z,100764.03
2022-08-14T01:07:22.479Z,100766.28
2022-08-14T01:09:51.567Z,100762.88
2022-08-14T01:12:27.280Z,100761.97
2022-08-14T01:14:58.610Z,100750.09
2022-08-14T01:17:49.682Z,100741.97
2022-08-14T01:20:39.568Z,100736.72
2022-08-14T01:23:10.404Z,100740.78
2022-08-14T01:25:43.811Z,100747.41
2022-08-14T01:28:34.212Z,100735.53
2022-08-14T01:30:59.760Z,100733.94
2022-08-14T01:33:31.075Z,100729.94
2022-08-14T01:36:21.185Z,100728.53
2022-08-14T01:38:51.463Z,100727.75
2022-08-14T01:41:23.056Z,100720.09
2022-08-14T01:44:01.515Z,100723.56
2022-08-14T01:46:36.994Z,100710.91
2022-08-14T01:49:07.608Z,100722.78
2022-08-14T01:51:35.460Z,100719.38
2022-08-14T01:54:24.453Z,100713.25
2022-08-14T01:57:06.355Z,100699.06
2022-08-14T01:59:37.589Z,100696.03
2022-08-14T02:02:18.936Z,100703.41
2022-08-14T02:04:56.295Z,100693.28
2022-08-14T02:07:53.235Z,100693.75
2022-08-14T02:10:15.784Z,100693.28
2022-08-14T02:12:46.195Z,100682.19
2022-08-14T02:15:21.752Z,100685.00
2022-08-14T02:17:49.910Z,100677.50
2022-08-14T02:20:20.002Z,100677.69
2022-08-14T02:22:52.073Z,100669.09
2022-08-14T02:25:21.137Z,100668.97
2022-08-14T02:28:25.236Z,100667.13
2022-08-14T02:30:38.452Z,100656.47
2022-08-14T02:33:07.210Z,100654.94
2022-08-14T02:35:33.714Z,100662.19
2022-08-14T02:38:11.820Z,100663.72
2022-08-14T02:40:54.496Z,100662.19
2022-08-14T02:43:22.709Z,100663.13
2022-08-14T02:45:49.596Z,100654.69
2022-08-14T02:49:02.725Z,100663.41
2022-08-14T02:51:07.166Z,100659.53
2022-08-14T02:53:37.373Z,100656.38
2022-08-14T02:56:29.532Z,100656.38
2022-08-14T02:58:55.539Z,100657.66
2022-08-14T03:01:24.039Z,100657.38
2022-08-14T03:03:53.195Z,100653.91
2022-08-14T03:06:35.063Z,100655.97
2022-08-14T03:09:11.601Z,100648.75
2022-08-14T03:11:39.717Z,100653.31
2022-08-14T03:14:12.321Z,100653.03
2022-08-14T03:16:45.441Z,100656.19
2022-08-14T03:19:16.087Z,100651.94
2022-08-14T03:21:46.711Z,100653.50
2022-08-14T03:24:23.188Z,100658.53
2022-08-14T03:26:56.128Z,100658.03
2022-08-14T03:29:26.551Z,100646.94
2022-08-14T03:31:53.456Z,100650.22
2022-08-14T03:34:24.354Z,100647.13
2022-08-14T03:37:38.963Z,100640.88
2022-08-14T03:39:53.084Z,100635.72
2022-08-14T03:42:20.014Z,100634.31
2022-08-14T03:45:20.312Z,100640.28
2022-08-14T03:47:46.541Z,100639.69
2022-08-14T03:50:27.953Z,100639.03
2022-08-14T03:53:02.779Z,100644.38
2022-08-14T03:55:30.233Z,100638.44
2022-08-14T03:57:57.716Z,100642.97
2022-08-14T04:00:42.730Z,100645.66
2022-08-14T04:03:13.275Z,100647.38
2022-08-14T04:05:48.715Z,100642.97
2022-08-14T04:08:29.158Z,100642.22
2022-08-14T04:11:01.074Z,100643.78
2022-08-14T04:13:31.649Z,100650.94
2022-08-14T04:16:06.831Z,100642.97
2022-08-14T04:18:43.446Z,100647.53
2022-08-14T04:21:11.159Z,100649.25
2022-08-14T04:23:38.768Z,100640.50
2022-08-14T04:26:14.623Z,100642.22
2022-08-14T04:29:06.971Z,100641.13
2022-08-14T04:33:00.066Z,100636.91
2022-08-14T04:34:20.986Z,100634.56
2022-08-14T04:37:12.411Z,100639.41
2022-08-14T04:39:58.745Z,100632.22
2022-08-14T04:42:51.378Z,100631.91
2022-08-14T04:45:20.798Z,100630.81
2022-08-14T04:48:05.606Z,100634.09
2022-08-14T04:50:43.996Z,100637.34
2022-08-14T04:53:18.947Z,100637.72
2022-08-14T04:55:51.592Z,100640.53
2022-08-14T04:58:32.763Z,100636.16
2022-08-14T05:01:01.451Z,100638.00
2022-08-14T05:03:31.062Z,100635.97
2022-08-14T05:06:00.179Z,100631.63
2022-08-14T05:08:32.169Z,100619.41
2022-08-14T05:11:13.640Z,100633.63
2022-08-14T05:14:16.650Z,100631.28
2022-08-14T05:16:31.539Z,100625.19
2022-08-14T05:19:18.183Z,100631.28
2022-08-14T05:21:57.280Z,100625.66
2022-08-14T05:24:25.707Z,100626.28
2022-08-14T05:26:52.185Z,100622.53
2022-08-14T05:29:19.935Z,100611.59
2022-08-14T05:31:47.282Z,100619.25
2022-08-14T05:34:13.965Z,100624.84
2022-08-14T05:36:42.689Z,100627.31
2022-08-14T05:39:09.217Z,100622.75
2022-08-14T05:41:52.764Z,100620.53
2022-08-14T05:44:20.515Z,100615.50
2022-08-14T05:46:47.017Z,100614.97
2022-08-14T05:49:14.312Z,100613.84
2022-08-14T05:51:41.589Z,100615.38
2022-08-14T05:54:11.317Z,100610.44
2022-08-14T05:56:40.266Z,100603.97
2022-08-14T05:59:07.243Z,100618.03
2022-08-14T06:01:34.326Z,100605.59
2022-08-14T06:04:01.854Z,100615.03
2022-08-14T06:06:35.086Z,100603.66
2022-08-14T06:09:04.811Z,100611.47
2022-08-14T06:11:31.440Z,100607.69
2022-08-14T06:13:59.404Z,100604.97
2022-08-14T06:16:26.160Z,100603.81
2022-08-14T06:18:53.279Z,100604.38
2022-08-14T06:21:22.005Z,100619.69
2022-08-14T06:23:49.357Z,100600.53
2022-08-14T06:26:16.325Z,100601.50
2022-08-14T06:28:47.433Z,100600.94
2022-08-14T06:31:19.063Z,100602.81
2022-08-14T06:35:04.399Z,100607.78
2022-08-14T06:36:33.592Z,100604.56
2022-08-14T06:39:00.137Z,100610.88
2022-08-14T06:41:56.574Z,100605.63
2022-08-14T06:44:13.045Z,100608.63
2022-08-14T06:46:39.551Z,100593.09
2022-08-14T06:49:06.259Z,100599.41
2022-08-14T06:51:38.684Z,100601.66
2022-08-14T06:54:11.253Z,100601.81
2022-08-14T06:56:38.659Z,100602.19
2022-08-14T06:59:06.045Z,100600.50
2022-08-14T07:01:51.511Z,100603.19
2022-08-14T07:04:41.724Z,100599.44
2022-08-14T07:07:08.246Z,100595.19
2022-08-14T07:09:43.633Z,100595.31
2022-08-14T07:12:54.926Z,100600.38
2022-08-14T07:15:05.908Z,100593.28
2022-08-14T07:17:36.287Z,100582.88
2022-08-14T07:20:04.404Z,100593.00
2022-08-14T07:22:33.060Z,100587.44
2022-08-14T07:25:16.857Z,100593.25
2022-08-14T07:27:43.382Z,100585.66
2022-08-14T07:30:33.715Z,100581.84
2022-08-14T07:32:57.234Z,100579.13
2022-08-14T07:35:23.726Z,100576.66
2022-08-14T07:37:52.683Z,100571.56
2022-08-14T07:40:27.411Z,100576.75
2022-08-14T07:42:56.829Z,100578.16
2022-08-14T07:45:23.543Z,100575.63
2022-08-14T07:47:50.129Z,100576.66
2022-08-14T07:50:20.151Z,100573.84
2022-08-14T07:52:49.239Z,100562.81
2022-08-14T07:55:21.010Z,100574.19
2022-08-14T07:57:48.163Z,100570.63
2022-08-14T08:00:33.448Z,100564.44
2022-08-14T08:03:00.918Z,100559.81
2022-08-14T08:05:27.952Z,100552.34
2022-08-14T08:07:54.776Z,100555.50
2022-08-14T08:11:02.525Z,100549.31
2022-08-14T08:13:23.943Z,100543.66
2022-08-14T08:15:56.731Z,100539.81
2022-08-14T08:18:27.740Z,100542.41
2022-08-14T08:20:59.365Z,100536.22
2022-08-14T08:23:39.987Z,100535.69
2022-08-14T08:26:09.986Z,100527.97
2022-08-14T08:28:36.438Z,100530.81
2022-08-14T08:31:06.464Z,100534.69
2022-08-14T08:33:37.670Z,100532.88
2022-08-14T08:36:13.003Z,100533.13
2022-08-14T08:39:18.382Z,100523.28
2022-08-14T08:41:44.233Z,100524.81
2022-08-14T08:44:17.076Z,100523.25
2022-08-14T08:46:58.314Z,100514.66
2022-08-14T08:49:36.359Z,100515.63
2022-08-14T08:52:24.285Z,100515.84
2022-08-14T08:54:55.831Z,100524.66
2022-08-14T08:57:22.344Z,100527.19
2022-08-14T08:59:55.198Z,100525.38
2022-08-14T09:02:26.195Z,100527.63
2022-08-14T09:05:02.269Z,100531.72
2022-08-14T09:07:28.860Z,100532.78
2022-08-14T09:10:00.158Z,100535.81
2022-08-14T09:12:32.469Z,100528.19
2022-08-14T09:15:12.023Z,100523.47
2022-08-14T09:17:41.412Z,100523.38
2022-08-14T09:20:11.589Z,100509.03
2022-08-14T09:22:47.740Z,100510.78
2022-08-14T09:25:19.854Z,100506.28
2022-08-14T09:28:05.598Z,100504.09
2022-08-14T09:30:35.009Z,100489.19
2022-08-14T09:33:12.605Z,100491.69
2022-08-14T09:36:10.619Z,100497.09
2022-08-14T09:38:47.536Z,100491.34
2022-08-14T09:42:21.746Z,100500.38
2022-08-14T09:45:12.468Z,100491.38
2022-08-14T09:47:52.373Z,100482.22
2022-08-14T09:50:33.072Z,100480.06
2022-08-14T09:53:05.767Z,100478.84
2022-08-14T09:55:44.612Z,100478.06
2022-08-14T09:58:23.017Z,100474.19
2022-08-14T10:01:00.633Z,100473.72
2022-08-14T10:03:28.674Z,100473.69
2022-08-14T10:06:06.180Z,100461.50
2022-08-14T10:08:50.688Z,100462.56
2022-08-14T10:11:19.417Z,100459.16
2022-08-14T10:13:54.188Z,100454.00
2022-08-14T10:16:33.413Z,100455.25
2022-08-14T10:19:09.531Z,100442.47
2022-08-14T10:21:58.854Z,100432.69
2022-08-14T10:24:40.053Z,100428.41
2022-08-14T10:27:23.661Z,100418.28
2022-08-14T10:29:52.658Z,100420.94
2022-08-14T10:32:28.789Z,100413.91
2022-08-14T10:35:13.594Z,100414.22
2022-08-14T10:37:48.031Z,100408.91
2022-08-14T10:40:43.723Z,100402.97
2022-08-14T10:43:26.675Z,100403.59
2022-08-14T10:46:21.739Z,100408.06
2022-08-14T10:49:02.880Z,100415.13
2022-08-14T10:51:34.182Z,100404.34
2022-08-14T10:54:35.254Z,100397.16
2022-08-14T10:57:12.255Z,100402.19
2022-08-14T10:59:55.608Z,100407.00
2022-08-14T11:02:44.613Z,100409.66
2022-08-14T11:05:19.305Z,100397.66
2022-08-14T11:07:56.423Z,100398.41
2022-08-14T11:10:27.797Z,100386.41
2022-08-14T11:12:57.801Z,100384.75
2022-08-14T11:15:27.777Z,100377.13
2022-08-14T11:17:55.875Z,100370.38
2022-08-14T11:20:30.821Z,100368.94
2022-08-14T11:23:00.933Z,100373.66
2022-08-14T11:25:36.762Z,100361.69
2022-08-14T11:28:18.680Z,100361.19
2022-08-14T11:30:53.843Z,100362.94
2022-08-14T11:33:29.103Z,100363.50
2022-08-14T11:36:00.446Z,100366.38
2022-08-14T11:38:35.567Z,100358.16
2022-08-14T11:41:05.496Z,100343.34
2022-08-14T11:43:48.167Z,100341.28
2022-08-14T11:46:30.601Z,100331.19
2022-08-14T11:49:05.673Z,100331.59
2022-08-14T11:51:50.823Z,100334.50
2022-08-14T11:54:34.561Z,100338.53
2022-08-14T11:57:02.499Z,100326.09
2022-08-14T11:59:33.720Z,100327.81
2022-08-14T12:03:01.731Z,100334.31
2022-08-14T12:05:04.184Z,100327.41
2022-08-14T12:07:31.115Z,100327.78
2022-08-14T12:09:59.514Z,100335.47
2022-08-14T12:12:45.361Z,100339.28
2022-08-14T12:15:13.964Z,100317.00
2022-08-14T12:17:51.744Z,100319.25
2022-08-14T12:20:29.866Z,100313.94
2022-08-14T12:23:00.692Z,100318.22
2022-08-14T12:25:28.200Z,100315.34
2022-08-14T12:27:59.218Z,100306.56
2022-08-14T12:30:42.608Z,100305.59
2022-08-14T12:33:25.665Z,100290.25
2022-08-14T12:35:57.497Z,100288.09
2022-08-14T12:38:45.040Z,100289.13
2022-08-14T12:41:20.753Z,100290.16
2022-08-14T12:43:59.666Z,100282.38
2022-08-14T12:46:33.731Z,100277.91
2022-08-14T12:49:29.291Z,100286.31
2022-08-14T12:51:58.624Z,100276.94
2022-08-14T12:54:28.205Z,100278.84
2022-08-14T12:57:08.224Z,100258.41
2022-08-14T12:59:37.289Z,100247.91
2022-08-14T13:02:26.406Z,100234.00
2022-08-14T13:04:57.996Z,100232.25
2022-08-14T13:07:32.090Z,100230.97
2022-08-14T13:09:59.765Z,100235.03
2022-08-14T13:12:33.468Z,100230.34
2022-08-14T13:15:08.662Z,100222.72
2022-08-14T13:17:56.681Z,100214.00
2022-08-14T13:20:29.790Z,100212.03
2022-08-14T13:22:59.782Z,100200.78
2022-08-14T13:25:27.848Z,100191.84
2022-08-14T13:27:59.013Z,100188.72
2022-08-14T13:30:26.311Z,100201.47
2022-08-14T13:32:57.804Z,100190.53
2022-08-14T13:35:25.797Z,100184.72
2022-08-14T13:37:53.751Z,100169.44
2022-08-14T13:40:26.496Z,100168.84
2022-08-14T13:42:56.721Z,100170.56
2022-08-14T13:45:24.108Z,100166.91
2022-08-14T13:48:10.757Z,100168.00
2022-08-14T13:50:59.394Z,100153.19
2022-08-14T13:53:33.404Z,100154.00
2022-08-14T13:56:01.563Z,100145.22
2022-08-14T13:58:34.674Z,100151.91
2022-08-14T14:01:02.680Z,100142.69
2022-08-14T14:03:35.195Z,100138.56
2022-08-14T14:06:03.439Z,100134.78
2022-08-14T14:08:46.410Z,100137.16
2022-08-14T14:11:16.802Z,100130.97
2022-08-14T14:13:48.477Z,100127.47
2022-08-14T14:16:26.035Z,100131.19
2022-08-14T14:19:06.677Z,100122.16
2022-08-14T14:21:36.852Z,100122.81
2022-08-14T14:24:04.743Z,100130.66
2022-08-14T14:26:35.884Z,100119.88
2022-08-14T14:29:04.395Z,100115.72
2022-08-14T14:31:31.401Z,100123.22
2022-08-14T14:34:12.418Z,100122.59
2022-08-14T14:36:52.553Z,100118.06
2022-08-14T14:39:25.279Z,100116.19
2022-08-14T14:41:56.802Z,100109.22
2022-08-14T14:44:26.821Z,100112.88
2022-08-14T14:46:54.219Z,100104.03
2022-08-14T14:49:31.704Z,100107.22
2022-08-14T14:52:23.386Z,100112.91
2022-08-14T14:54:58.559Z,100107.84
2022-08-14T14:57:35.522Z,100104.16
2022-08-14T15:00:06.704Z,100097.81
2022-08-14T15:02:38.435Z,100099.09
2022-08-14T15:05:08.110Z,100102.56
2022-08-14T15:07:36.700Z,100097.94
2022-08-14T15:10:05.577Z,100098.16
2022-08-14T15:12:56.071Z,100098.31
2022-08-14T15:15:24.467Z,100088.41
2022-08-14T15:17:54.537Z,100091.53
2022-08-14T15:20:30.642Z,100090.75
2022-08-14T15:23:00.759Z,100079.91
2022-08-14T15:25:31.899Z,100088.34
2022-08-14T15:28:00.776Z,100083.25
2022-08-14T15:30:32.192Z,100091.84
2022-08-14T15:32:59.543Z,100091.41
2022-08-14T15:35:29.736Z,100081.22
2022-08-14T15:38:07.882Z,100076.78
2022-08-14T15:40:41.139Z,100081.94
2022-08-14T15:43:10.845Z,100064.47
2022-08-14T15:45:40.660Z,100068.81
2022-08-14T15:48:08.438Z,100062.94
2022-08-14T15:50:43.255Z,100067.13
2022-08-14T15:53:12.147Z,100067.13
2022-08-14T15:55:38.928Z,100065.00
2022-08-14T15:58:08.132Z,100061.66
2022-08-14T16:00:59.715Z,100057.19
2022-08-14T16:03:36.476Z,100045.47
2022-08-14T16:06:10.867Z,100045.38
2022-08-14T16:08:43.267Z,100047.28
2022-08-14T16:11:11.585Z,100046.56
2022-08-14T16:13:45.082Z,100040.47
2022-08-14T16:16:48.121Z,100043.56
2022-08-14T16:19:03.287Z,100042.22
2022-08-14T16:21:31.673Z,100044.16
2022-08-14T16:24:00.541Z,100034.41
2022-08-14T16:26:29.174Z,100036.28
2022-08-14T16:29:02.470Z,100029.19
2022-08-14T16:31:35.990Z,100023.97
2022-08-14T16:34:44.219Z,100022.22
2022-08-14T16:36:53.130Z,100025.44
2022-08-14T16:39:22.502Z,100019.91
2022-08-14T16:41:52.457Z,100018.50
2022-08-14T16:44:33.910Z,100029.13
2022-08-14T16:47:02.755Z,100018.66
2022-08-14T16:50:03.434Z,100013.38
2022-08-14T16:52:25.200Z,100016.13
2022-08-14T16:55:09.413Z,100011.16
2022-08-14T16:57:52.050Z,100000.84
2022-08-14T17:00:43.765Z,99999.53
2022-08-14T17:03:12.292Z,100001.50
2022-08-14T17:05:42.942Z,99995.41
2022-08-14T17:08:32.909Z,100004.59
2022-08-14T17:10:59.666Z,99986.44
2022-08-14T17:13:57.854Z,99995.06
2022-08-14T17:16:24.555Z,99987.25
2022-08-14T17:19:00.028Z,99996.84
2022-08-14T17:21:32.420Z,99988.81
2022-08-14T17:24:51.655Z,100001.63
2022-08-14T17:26:55.692Z,99990.72
2022-08-14T17:29:29.673Z,99984.81
2022-08-14T17:32:21.884Z,99985.19
2022-08-14T17:34:55.391Z,99980.97
2022-08-14T17:37:26.040Z,99978.66
2022-08-14T17:40:25.873Z,99977.69
2022-08-14T17:43:02.210Z,99974.81
2022-08-14T17:45:41.541Z,99979.22
2022-08-14T17:49:10.729Z,99979.19
2022-08-14T17:51:23.892Z,99980.16
2022-08-14T17:54:02.573Z,99975.91
2022-08-14T17:56:31.835Z,99966.56
2022-08-14T17:59:05.292Z,99969.56
2022-08-14T18:01:37.630Z,99973.56
2022-08-14T18:04:27.933Z,99975.06
2022-08-14T18:06:57.773Z,99972.94
2022-08-14T18:09:34.352Z,99975.03
2022-08-14T18:12:03.529Z,99985.31
2022-08-14T18:14:32.375Z,99981.66
2022-08-14T18:17:15.887Z,99981.97
2022-08-14T18:19:44.665Z,99982.88
2022-08-14T18:22:30.904Z,99983.06
2022-08-14T18:24:58.995Z,99983.56
2022-08-14T18:27:39.034Z,99976.06
2022-08-14T18:30:31.746Z,99972.38
2022-08-14T18:32:59.105Z,99974.22
2022-08-14T18:35:59.131Z,99977.59
2022-08-14T18:38:42.942Z,99972.59
2022-08-14T18:41:36.161Z,99974.75
2022-08-14T18:44:04.549Z,99967.81
2022-08-14T18:47:10.047Z,99970.38
2022-08-14T18:50:00.744Z,99969.00
2022-08-14T18:52:29.638Z,99968.34
2022-08-14T18:54:59.587Z,99969.81
2022-08-14T18:57:27.088Z,99965.53
2022-08-14T19:00:32.228Z,99970.00
2022-08-14T19:03:01.618Z,99966.50
2022-08-14T19:05:47.840Z,99972.69
2022-08-14T19:08:27.121Z,99973.59
2022-08-14T19:11:04.135Z,99971.94
2022-08-14T19:13:48.409Z,99973.41
2022-08-14T19:16:26.046Z,99982.44
2022-08-14T19:19:01.290Z,99970.72
2022-08-14T19:21:27.783Z,99978.41
2022-08-14T19:24:29.287Z,99980.94
2022-08-14T19:27:19.330Z,99985.53
2022-08-14T19:29:51.470Z,99978.72
2022-08-14T19:32:36.822Z,99982.00
2022-08-14T19:35:14.927Z,99993.53
2022-08-14T19:37:46.084Z,99987.50
2022-08-14T19:40:19.740Z,99989.47
2022-08-14T19:42:47.834Z,99983.41
2022-08-14T19:45:15.785Z,99996.22
2022-08-14T19:47:42.772Z,99992.56
2022-08-14T19:50:37.668Z,99992.31
2022-08-14T19:53:11.357Z,99990.00
2022-08-14T19:55:45.754Z,99990.25
2022-08-14T19:58:12.977Z,99984.84
2022-08-14T20:00:52.605Z,99988.03
2022-08-14T20:03:23.454Z,99990.63
2022-08-14T20:06:01.318Z,99989.75
2022-08-14T20:11:00.285Z,99988.97
2022-08-14T20:11:58.523Z,99990.28
2022-08-14T20:14:29.611Z,99981.25
2022-08-14T20:17:03.187Z,99980.72
2022-08-14T20:19:37.900Z,99976.34
2022-08-14T20:22:37.461Z,99977.19
2022-08-14T20:24:56.518Z,99975.63
2022-08-14T20:27:39.487Z,99976.72
2022-08-14T20:30:35.316Z,99984.06
2022-08-14T20:33:07.891Z,99977.44
2022-08-14T20:35:44.424Z,99980.16
2022-08-14T20:38:32.006Z,99981.22
2022-08-14T20:41:05.678Z,99977.69
2022-08-14T20:43:53.581Z,99978.53
2022-08-14T20:46:38.711Z,99987.69
2022-08-14T20:49:10.763Z,99989.31
2022-08-14T20:51:54.762Z,99979.06
2022-08-14T20:54:34.592Z,99985.56
2022-08-14T20:57:10.051Z,99980.03
2022-08-14T20:59:43.525Z,99983.50
2022-08-14T21:02:29.566Z,99981.25
2022-08-14T21:05:00.653Z,99968.19
2022-08-14T21:07:36.063Z,99970.13
2022-08-14T21:10:36.041Z,99979.22
2022-08-14T21:13:25.788Z,99978.81
2022-08-14T21:15:57.387Z,99976.03
2022-08-14T21:18:31.864Z,99976.63
2022-08-14T21:21:04.619Z,99978.75
2022-08-14T21:23:54.379Z,99980.41
2022-08-14T21:26:51.284Z,99982.03
2022-08-14T21:29:11.910Z,99981.09
2022-08-14T21:31:39.733Z,99982.69
2022-08-14T21:34:30.947Z,99978.91
2022-08-14T21:36:54.595Z,99977.13
2022-08-14T21:39:24.773Z,99976.91
2022-08-14T21:41:58.994Z,99979.50
2022-08-14T21:44:43.739Z,99982.84
2022-08-14T21:47:13.053Z,99976.22
2022-08-14T21:49:43.157Z,99973.91
2022-08-14T21:52:49.200Z,99974.22
2022-08-14T21:55:09.446Z,99976.06
2022-08-14T21:58:46.390Z,99983.06
2022-08-14T22:00:36.655Z,99976.88
2022-08-14T22:03:09.987Z,99969.19
2022-08-14T22:05:39.189Z,99970.50
2022-08-14T22:08:06.811Z,99964.38
2022-08-14T22:10:35.232Z,99961.56
2022-08-14T22:13:02.232Z,99961.59
2022-08-14T22:15:31.788Z,99951.28
2022-08-14T22:17:59.982Z,99947.72
2022-08-14T22:20:29.152Z,99952.41
2022-08-14T22:23:02.970Z,99946.25
2022-08-14T22:25:33.330Z,99952.16
2022-08-14T22:28:01.263Z,99945.72
2022-08-14T22:30:27.822Z,99945.22
2022-08-14T22:32:56.910Z,99939.84
2022-08-14T22:35:25.564Z,99936.78
2022-08-14T22:38:34.914Z,99936.00
2022-08-14T22:41:02.469Z,99927.25
2022-08-14T22:43:27.554Z,99927.53
2022-08-14T22:45:58.074Z,99923.16
2022-08-14T22:48:29.397Z,99920.34
2022-08-14T22:50:56.122Z,99920.09
2022-08-14T22:53:24.296Z,99928.63
2022-08-14T22:55:56.625Z,99935.81
2022-08-14T22:58:30.155Z,99932.72
2022-08-14T23:01:00.140Z,99925.25
2022-08-14T23:03:27.665Z,99928.34
2022-08-14T23:05:55.509Z,99929.13
2022-08-14T23:08:58.371Z,99925.78
2022-08-14T23:11:10.421Z,99926.81
2022-08-14T23:13:43.542Z,99914.47
2022-08-14T23:16:20.477Z,99919.84
2022-08-14T23:18:53.804Z,99922.19
2022-08-14T23:21:24.243Z,99917.81
2022-08-14T23:23:54.924Z,99920.16
2022-08-14T23:26:47.300Z,99922.72
2022-08-14T23:29:11.506Z,99908.81
2022-08-14T23:31:38.538Z,99911.91
2022-08-14T23:34:08.273Z,99911.63
2022-08-14T23:36:53.606Z,99905.97
2022-08-14T23:39:29.963Z,99903.94
2022-08-14T23:42:02.536Z,99901.84
2022-08-14T23:44:35.191Z,99898.53
2022-08-14T23:47:11.682Z,99894.66
2022-08-14T23:50:00.502Z,99893.34
2022-08-14T23:52:51.310Z,99888.19
2022-08-14T23:55:16.017Z,99891.28
2022-08-14T23:57:57.636Z,99890.75
